createdAt,value
2023-02-01T00:00:11.561Z,98783.84
2023-02-01T00:02:14.605Z,98776.88
2023-02-01T00:04:17.550Z,98775.03
2023-02-01T00:06:21.826Z,98772.44
2023-02-01T00:08:24.782Z,98764.94
2023-02-01T00:10:27.799Z,98765.81
2023-02-01T00:12:30.737Z,98765.75
2023-02-01T00:14:39.143Z,98764.34
2023-02-01T00:16:42.234Z,98766.78
2023-02-01T00:18:45.290Z,98754.03
2023-02-01T00:20:48.323Z,98754.78
2023-02-01T00:22:52.649Z,98752.09
2023-02-01T00:24:55.577Z,98756.31
2023-02-01T00:26:58.592Z,98747.63
2023-02-01T00:29:02.119Z,98748.72
2023-02-01T00:31:06.652Z,98746.78
2023-02-01T00:33:09.796Z,98750.19
2023-02-01T00:35:12.745Z,98743.59
2023-02-01T00:37:15.681Z,98743.47
2023-02-01T00:39:19.975Z,98741.66
2023-02-01T00:41:23.736Z,98741.72
2023-02-01T00:43:26.726Z,98735.78
2023-02-01T00:45:29.689Z,98728.31
2023-02-01T00:47:32.780Z,98726.56
2023-02-01T00:49:35.751Z,98718.03
2023-02-01T00:51:38.746Z,98717.53
2023-02-01T00:53:42.173Z,98711.19
2023-02-01T00:55:48.398Z,98694.13
2023-02-01T00:57:51.286Z,98691.69
2023-02-01T00:59:54.350Z,98686.00
2023-02-01T01:01:57.434Z,98680.09
2023-02-01T01:04:01.336Z,98692.97
2023-02-01T01:06:06.473Z,98692.25
2023-02-01T01:08:09.396Z,98687.25
2023-02-01T01:10:13.023Z,98677.94
2023-02-01T01:12:17.255Z,98680.47
2023-02-01T01:14:21.895Z,98683.94
2023-02-01T01:16:26.134Z,98686.53
2023-02-01T01:18:29.678Z,98690.69
2023-02-01T01:20:32.645Z,98687.94
2023-02-01T01:22:35.572Z,98693.22
2023-02-01T01:24:38.654Z,98697.69
2023-02-01T01:26:41.663Z,98703.69
2023-02-01T01:28:46.575Z,98697.69
2023-02-01T01:30:49.966Z,98710.53
2023-02-01T01:32:53.938Z,98708.06
2023-02-01T01:34:56.961Z,98708.81
2023-02-01T01:37:00.119Z,98716.31
2023-02-01T01:39:03.269Z,98710.41
2023-02-01T01:41:06.612Z,98708.97
2023-02-01T01:43:15.640Z,98696.41
2023-02-01T01:45:26.607Z,98699.22
2023-02-01T01:47:33.177Z,98689.75
2023-02-01T01:49:36.200Z,98692.34
2023-02-01T01:51:42.739Z,98691.47
2023-02-01T01:53:47.539Z,98686.16
2023-02-01T01:55:51.839Z,98691.16
2023-02-01T01:57:58.894Z,98688.53
2023-02-01T02:00:06.051Z,98688.22
2023-02-01T02:02:18.326Z,98691.41
2023-02-01T02:04:22.797Z,98682.63
2023-02-01T02:06:34.986Z,98681.59
2023-02-01T02:08:40.890Z,98670.22
2023-02-01T02:11:03.703Z,98669.22
2023-02-01T02:13:06.733Z,98659.75
2023-02-01T02:15:11.652Z,98663.72
2023-02-01T02:17:33.094Z,98656.16
2023-02-01T02:20:11.420Z,98653.38
2023-02-01T02:22:37.935Z,98648.09
2023-02-01T02:24:55.059Z,98656.66
2023-02-01T02:27:27.630Z,98647.38
2023-02-01T02:30:06.702Z,98656.22
2023-02-01T02:32:30.958Z,98651.47
2023-02-01T02:34:36.809Z,98655.09
2023-02-01T02:36:45.942Z,98643.91
2023-02-01T02:38:52.564Z,98632.09
2023-02-01T02:41:07.154Z,98625.34
2023-02-01T02:43:30.796Z,98626.16
2023-02-01T02:45:58.077Z,98620.19
2023-02-01T02:48:08.665Z,98627.16
2023-02-01T02:50:35.415Z,98629.34
2023-02-01T02:53:01.640Z,98639.31
2023-02-01T02:55:06.647Z,98629.81
2023-02-01T02:57:29.789Z,98640.88
2023-02-01T02:59:53.465Z,98627.75
2023-02-01T03:02:14.591Z,98622.41
2023-02-01T03:04:18.701Z,98624.16
2023-02-01T03:06:26.550Z,98619.75
2023-02-01T03:08:30.275Z,98613.44
2023-02-01T03:10:39.971Z,98613.19
2023-02-01T03:12:58.167Z,98622.63
2023-02-01T03:15:06.673Z,98625.72
2023-02-01T03:17:14.356Z,98626.44
2023-02-01T03:19:21.079Z,98619.56
2023-02-01T03:21:28.647Z,98605.91
2023-02-01T03:23:34.847Z,98601.06
2023-02-01T03:25:38.371Z,98601.94
2023-02-01T03:27:44.483Z,98611.28
2023-02-01T03:29:51.287Z,98612.84
2023-02-01T03:31:54.506Z,98602.63
2023-02-01T03:33:57.788Z,98597.44
2023-02-01T03:36:10.952Z,98610.19
2023-02-01T03:38:21.059Z,98622.03
2023-02-01T03:40:24.885Z,98625.34
2023-02-01T03:42:32.737Z,98632.84
2023-02-01T03:44:38.034Z,98630.84
2023-02-01T03:46:43.642Z,98633.31
2023-02-01T03:48:50.886Z,98634.19
2023-02-01T03:50:55.982Z,98629.94
2023-02-01T03:53:01.785Z,98616.94
2023-02-01T03:55:07.833Z,98627.31
2023-02-01T03:57:14.780Z,98619.53
2023-02-01T03:59:17.707Z,98632.16
2023-02-01T04:01:20.683Z,98636.72
2023-02-01T04:03:24.397Z,98625.66
2023-02-01T04:05:27.592Z,98617.31
2023-02-01T04:07:38.108Z,98607.16
2023-02-01T04:09:41.471Z,98593.69
2023-02-01T04:11:45.950Z,98597.31
2023-02-01T04:13:48.971Z,98604.31
2023-02-01T04:15:52.004Z,98609.56
2023-02-01T04:17:55.468Z,98609.09
2023-02-01T04:19:58.417Z,98613.03
2023-02-01T04:22:01.272Z,98618.09
2023-02-01T04:24:04.343Z,98618.72
2023-02-01T04:26:07.767Z,98617.59
2023-02-01T04:28:12.061Z,98631.09
2023-02-01T04:30:15.656Z,98630.06
2023-02-01T04:32:18.732Z,98643.53
2023-02-01T04:34:23.469Z,98634.66
2023-02-01T04:36:26.580Z,98641.25
2023-02-01T04:38:30.366Z,98637.56
2023-02-01T04:40:33.445Z,98628.63
2023-02-01T04:42:36.343Z,98638.72
2023-02-01T04:44:42.854Z,98645.28
2023-02-01T04:46:46.820Z,98638.16
2023-02-01T04:48:49.781Z,98638.88
2023-02-01T04:50:52.767Z,98637.88
2023-02-01T04:52:55.665Z,98631.03
2023-02-01T04:55:01.025Z,98629.97
2023-02-01T04:57:03.984Z,98629.06
2023-02-01T04:59:07.172Z,98621.22
2023-02-01T05:01:11.516Z,98628.03
2023-02-01T05:03:14.446Z,98627.09
2023-02-01T05:05:17.569Z,98634.81
2023-02-01T05:07:20.453Z,98633.00
2023-02-01T05:09:28.567Z,98630.34
2023-02-01T05:11:49.316Z,98628.53
2023-02-01T05:13:54.899Z,98630.34
2023-02-01T05:15:57.910Z,98626.97
2023-02-01T05:18:02.372Z,98620.06
2023-02-01T05:20:06.405Z,98624.38
2023-02-01T05:22:09.322Z,98624.44
2023-02-01T05:24:14.673Z,98626.97
2023-02-01T05:26:17.902Z,98621.03
2023-02-01T05:28:20.925Z,98620.06
2023-02-01T05:30:24.209Z,98626.34
2023-02-01T05:32:28.004Z,98607.38
2023-02-01T05:34:32.653Z,98606.09
2023-02-01T05:36:35.933Z,98607.97
2023-02-01T05:38:38.873Z,98607.06
2023-02-01T05:40:41.900Z,98610.84
2023-02-01T05:42:44.914Z,98614.97
2023-02-01T05:44:47.946Z,98623.41
2023-02-01T05:46:53.201Z,98624.91
2023-02-01T05:48:56.129Z,98630.75
2023-02-01T05:51:00.456Z,98631.59
2023-02-01T05:53:03.449Z,98629.69
2023-02-01T05:55:07.128Z,98628.66
2023-02-01T05:57:10.137Z,98637.06
2023-02-01T05:59:13.219Z,98634.31
2023-02-01T06:01:16.228Z,98631.72
2023-02-01T06:03:19.631Z,98635.13
2023-02-01T06:05:22.595Z,98632.53
2023-02-01T06:07:29.385Z,98630.91
2023-02-01T06:09:32.631Z,98621.44
2023-02-01T06:11:35.602Z,98623.06
2023-02-01T06:13:39.599Z,98630.63
2023-02-01T06:15:45.109Z,98624.66
2023-02-01T06:17:48.446Z,98634.19
2023-02-01T06:19:51.390Z,98626.28
2023-02-01T06:21:54.313Z,98630.69
2023-02-01T06:23:59.312Z,98615.34
2023-02-01T06:26:04.180Z,98619.56
2023-02-01T06:28:09.214Z,98615.50
2023-02-01T06:30:14.591Z,98609.47
2023-02-01T06:32:18.377Z,98606.09
2023-02-01T06:34:23.377Z,98613.09
2023-02-01T06:36:26.561Z,98618.28
2023-02-01T06:38:29.854Z,98616.53
2023-02-01T06:40:34.188Z,98608.75
2023-02-01T06:42:37.293Z,98612.13
2023-02-01T06:44:40.249Z,98615.50
2023-02-01T06:46:43.239Z,98612.81
2023-02-01T06:48:47.035Z,98629.34
2023-02-01T06:50:50.049Z,98630.22
2023-02-01T06:52:53.060Z,98645.03
2023-02-01T06:54:56.745Z,98640.72
2023-02-01T06:57:01.129Z,98641.41
2023-02-01T06:59:05.889Z,98649.13
2023-02-01T07:01:10.323Z,98645.84
2023-02-01T07:03:13.435Z,98651.09
2023-02-01T07:05:16.530Z,98650.28
2023-02-01T07:07:20.823Z,98651.09
2023-02-01T07:09:23.843Z,98645.09
2023-02-01T07:11:28.292Z,98657.94
2023-02-01T07:13:32.825Z,98664.81
2023-02-01T07:15:35.847Z,98667.47
2023-02-01T07:17:38.829Z,98670.13
2023-02-01T07:19:41.777Z,98675.94
2023-02-01T07:21:44.730Z,98668.97
2023-02-01T07:23:47.843Z,98680.09
2023-02-01T07:25:50.988Z,98671.41
2023-02-01T07:27:53.994Z,98673.06
2023-02-01T07:30:02.907Z,98679.09
2023-02-01T07:32:06.256Z,98677.22
2023-02-01T07:34:09.185Z,98688.44
2023-02-01T07:36:14.482Z,98691.84
2023-02-01T07:38:18.231Z,98679.81
2023-02-01T07:40:25.944Z,98682.47
2023-02-01T07:42:28.915Z,98690.41
2023-02-01T07:44:31.991Z,98673.00
2023-02-01T07:46:37.179Z,98689.41
2023-02-01T07:48:40.660Z,98692.06
2023-02-01T07:50:43.772Z,98696.34
2023-02-01T07:52:46.782Z,98702.53
2023-02-01T07:54:49.879Z,98695.66
2023-02-01T07:56:52.824Z,98682.63
2023-02-01T07:58:56.989Z,98683.16
2023-02-01T08:01:17.627Z,98682.34
2023-02-01T08:03:21.994Z,98677.00
2023-02-01T08:05:24.941Z,98675.03
2023-02-01T08:07:27.975Z,98669.88
2023-02-01T08:09:32.140Z,98674.34
2023-02-01T08:11:35.171Z,98672.66
2023-02-01T08:13:38.291Z,98670.63
2023-02-01T08:15:41.454Z,98658.47
2023-02-01T08:17:48.981Z,98654.16
2023-02-01T08:19:53.314Z,98656.06
2023-02-01T08:21:56.265Z,98659.50
2023-02-01T08:23:59.358Z,98671.81
2023-02-01T08:26:13.535Z,98679.59
2023-02-01T08:28:16.886Z,98680.31
2023-02-01T08:30:19.952Z,98697.47
2023-02-01T08:32:22.977Z,98711.13
2023-02-01T08:34:26.282Z,98710.06
2023-02-01T08:36:32.047Z,98715.06
2023-02-01T08:38:37.128Z,98713.88
2023-02-01T08:40:42.385Z,98710.13
2023-02-01T08:42:54.946Z,98710.88
2023-02-01T08:44:58.299Z,98714.09
2023-02-01T08:47:01.551Z,98711.50
2023-02-01T08:49:04.825Z,98707.19
2023-02-01T08:51:10.067Z,98716.56
2023-02-01T08:53:15.041Z,98718.19
2023-02-01T08:55:18.404Z,98716.28
2023-02-01T08:57:21.439Z,98718.66
2023-02-01T08:59:26.681Z,98707.59
2023-02-01T09:01:30.636Z,98714.28
2023-02-01T09:03:34.159Z,98706.59
2023-02-01T09:05:48.667Z,98705.63
2023-02-01T09:07:52.608Z,98709.97
2023-02-01T09:09:57.393Z,98715.09
2023-02-01T09:12:00.422Z,98711.63
2023-02-01T09:14:03.371Z,98716.81
2023-02-01T09:16:06.963Z,98715.84
2023-02-01T09:18:10.009Z,98702.03
2023-02-01T09:20:13.861Z,98695.22
2023-02-01T09:22:17.097Z,98695.84
2023-02-01T09:24:20.095Z,98710.25
2023-02-01T09:26:31.497Z,98709.13
2023-02-01T09:28:35.396Z,98709.66
2023-02-01T09:30:39.054Z,98715.53
2023-02-01T09:32:42.117Z,98720.66
2023-02-01T09:34:45.087Z,98713.88
2023-02-01T09:36:48.060Z,98719.69
2023-02-01T09:38:53.189Z,98714.56
2023-02-01T09:40:57.344Z,98716.94
2023-02-01T09:43:13.835Z,98707.88
2023-02-01T09:45:22.503Z,98712.84
2023-02-01T09:47:27.088Z,98723.28
2023-02-01T09:49:32.725Z,98727.59
2023-02-01T09:51:39.750Z,98723.66
2023-02-01T09:53:44.579Z,98734.91
2023-02-01T09:55:50.380Z,98740.09
2023-02-01T09:57:57.042Z,98730.84
2023-02-01T10:00:05.347Z,98719.75
2023-02-01T10:02:18.702Z,98729.38
2023-02-01T10:04:23.028Z,98741.22
2023-02-01T10:06:38.498Z,98740.25
2023-02-01T10:08:56.459Z,98734.38
2023-02-01T10:11:04.714Z,98722.22
2023-02-01T10:13:20.150Z,98721.47
2023-02-01T10:15:47.346Z,98729.94
2023-02-01T10:17:59.456Z,98743.66
2023-02-01T10:20:10.001Z,98742.69
2023-02-01T10:22:14.865Z,98759.03
2023-02-01T10:24:28.024Z,98753.97
2023-02-01T10:26:35.699Z,98754.59
2023-02-01T10:28:40.227Z,98746.81
2023-02-01T10:30:47.323Z,98752.00
2023-02-01T10:32:53.784Z,98758.81
2023-02-01T10:35:00.023Z,98759.88
2023-02-01T10:37:09.655Z,98757.28
2023-02-01T10:39:14.591Z,98759.03
2023-02-01T10:41:20.131Z,98760.72
2023-02-01T10:43:23.678Z,98763.19
2023-02-01T10:45:28.792Z,98748.16
2023-02-01T10:47:33.269Z,98761.19
2023-02-01T10:49:42.625Z,98768.78
2023-02-01T10:51:48.317Z,98756.63
2023-02-01T10:53:54.265Z,98754.88
2023-02-01T10:55:57.628Z,98751.56
2023-02-01T10:58:02.460Z,98753.25
2023-02-01T11:00:09.275Z,98761.75
2023-02-01T11:02:21.563Z,98745.19
2023-02-01T11:04:27.370Z,98747.41
2023-02-01T11:06:32.895Z,98739.09
2023-02-01T11:08:35.921Z,98738.88
2023-02-01T11:10:41.514Z,98732.19
2023-02-01T11:12:55.509Z,98733.03
2023-02-01T11:15:16.169Z,98731.91
2023-02-01T11:17:27.175Z,98728.84
2023-02-01T11:19:32.016Z,98734.50
2023-02-01T11:21:35.497Z,98741.19
2023-02-01T11:23:43.228Z,98730.25
2023-02-01T11:25:54.423Z,98736.31
2023-02-01T11:27:58.101Z,98724.91
2023-02-01T11:30:03.171Z,98720.81
2023-02-01T11:32:07.172Z,98726.97
2023-02-01T11:34:14.674Z,98722.75
2023-02-01T11:36:20.592Z,98712.38
2023-02-01T11:38:27.335Z,98701.53
2023-02-01T11:40:32.293Z,98697.13
2023-02-01T11:42:35.300Z,98698.28
2023-02-01T11:44:39.909Z,98697.38
2023-02-01T11:46:42.994Z,98685.38
2023-02-01T11:48:46.178Z,98677.88
2023-02-01T11:50:55.017Z,98679.94
2023-02-01T11:53:16.523Z,98686.19
2023-02-01T11:55:38.863Z,98686.03
2023-02-01T11:57:53.931Z,98681.69
2023-02-01T12:00:07.023Z,98670.47
2023-02-01T12:02:28.943Z,98663.56
2023-02-01T12:05:06.725Z,98665.19
2023-02-01T12:07:16.030Z,98669.41
2023-02-01T12:09:32.091Z,98672.75
2023-02-01T12:11:45.955Z,98659.63
2023-02-01T12:14:03.525Z,98657.84
2023-02-01T12:16:17.969Z,98667.34
2023-02-01T12:18:49.931Z,98664.06
2023-02-01T12:21:03.852Z,98656.44
2023-02-01T12:23:19.953Z,98663.44
2023-02-01T12:25:33.290Z,98672.06
2023-02-01T12:27:54.097Z,98670.31
2023-02-01T12:30:12.933Z,98675.50
2023-02-01T12:32:26.809Z,98678.09
2023-02-01T12:35:04.158Z,98673.88
2023-02-01T12:37:16.965Z,98673.13
2023-02-01T12:39:25.183Z,98664.50
2023-02-01T12:41:47.744Z,98661.91
2023-02-01T12:43:53.903Z,98668.63
2023-02-01T12:46:00.529Z,98672.63
2023-02-01T12:48:24.151Z,98674.53
2023-02-01T12:50:29.857Z,98676.56
2023-02-01T12:52:38.284Z,98667.09
2023-02-01T12:54:46.387Z,98671.22
2023-02-01T12:56:56.172Z,98671.16
2023-02-01T12:59:01.987Z,98668.53
2023-02-01T13:01:10.127Z,98666.03
2023-02-01T13:03:19.640Z,98661.47
2023-02-01T13:05:25.067Z,98652.88
2023-02-01T13:07:31.511Z,98648.56
2023-02-01T13:09:40.367Z,98645.88
2023-02-01T13:11:46.109Z,98634.41
2023-02-01T13:13:57.213Z,98639.09
2023-02-01T13:16:08.274Z,98628.56
2023-02-01T13:18:16.510Z,98628.16
2023-02-01T13:20:25.140Z,98626.41
2023-02-01T13:22:32.646Z,98629.78
2023-02-01T13:24:39.265Z,98626.47
2023-02-01T13:26:42.413Z,98634.34
2023-02-01T13:28:49.354Z,98640.38
2023-02-01T13:31:19.589Z,98623.94
2023-02-01T13:33:54.062Z,98638.03
2023-02-01T13:36:17.019Z,98628.75
2023-02-01T13:39:05.223Z,98625.34
2023-02-01T13:41:20.136Z,98625.41
2023-02-01T13:43:27.176Z,98625.56
2023-02-01T13:45:32.691Z,98617.94
2023-02-01T13:47:41.727Z,98622.47
2023-02-01T13:49:44.819Z,98618.22
2023-02-01T13:51:50.766Z,98616.22
2023-02-01T13:53:54.824Z,98623.19
2023-02-01T13:56:00.654Z,98624.78
2023-02-01T13:58:18.235Z,98629.75
2023-02-01T14:00:31.456Z,98627.38
2023-02-01T14:03:23.080Z,98612.72
2023-02-01T14:05:59.558Z,98612.28
2023-02-01T14:08:13.676Z,98621.34
2023-02-01T14:10:51.646Z,98625.72
2023-02-01T14:13:06.183Z,98615.41
2023-02-01T14:15:23.849Z,98618.84
2023-02-01T14:17:36.152Z,98621.34
2023-02-01T14:19:39.696Z,98619.50
2023-02-01T14:21:52.694Z,98628.53
2023-02-01T14:24:01.316Z,98627.66
2023-02-01T14:26:14.049Z,98628.53
2023-02-01T14:28:27.085Z,98630.28
2023-02-01T14:30:30.154Z,98631.34
2023-02-01T14:32:35.839Z,98648.63
2023-02-01T14:34:45.843Z,98634.72
2023-02-01T14:36:53.337Z,98652.03
2023-02-01T14:38:56.423Z,98643.44
2023-02-01T14:41:13.504Z,98644.25
2023-02-01T14:43:23.677Z,98639.06
2023-02-01T14:45:51.968Z,98640.03
2023-02-01T14:47:56.143Z,98634.84
2023-02-01T14:50:05.041Z,98633.34
2023-02-01T14:52:15.447Z,98637.00
2023-02-01T14:54:20.807Z,98630.47
2023-02-01T14:56:24.136Z,98638.97
2023-02-01T14:58:37.370Z,98643.22
2023-02-01T15:00:49.718Z,98636.59
2023-02-01T15:02:53.861Z,98640.03
2023-02-01T15:04:58.165Z,98641.94
2023-02-01T15:07:07.999Z,98631.56
2023-02-01T15:09:16.471Z,98634.97
2023-02-01T15:11:19.943Z,98638.41
2023-02-01T15:13:25.168Z,98644.31
2023-02-01T15:15:28.361Z,98655.59
2023-02-01T15:17:34.693Z,98649.50
2023-02-01T15:19:38.143Z,98655.66
2023-02-01T15:21:49.294Z,98666.81
2023-02-01T15:23:52.283Z,98661.47
2023-02-01T15:25:57.105Z,98664.28
2023-02-01T15:28:00.399Z,98659.25
2023-02-01T15:30:10.332Z,98672.13
2023-02-01T15:32:32.348Z,98665.22
2023-02-01T15:34:49.375Z,98648.84
2023-02-01T15:37:07.643Z,98658.41
2023-02-01T15:39:26.774Z,98651.59
2023-02-01T15:41:32.588Z,98664.50
2023-02-01T15:43:39.085Z,98658.25
2023-02-01T15:45:42.297Z,98655.59
2023-02-01T15:47:49.428Z,98649.66
2023-02-01T15:49:54.844Z,98650.41
2023-02-01T15:51:59.386Z,98656.50
2023-02-01T15:54:04.872Z,98661.69
2023-02-01T15:56:08.475Z,98665.50
2023-02-01T15:58:25.829Z,98660.16
2023-02-01T16:00:30.958Z,98673.06
2023-02-01T16:02:38.463Z,98674.53
2023-02-01T16:04:51.820Z,98673.69
2023-02-01T16:06:55.977Z,98672.94
2023-02-01T16:09:04.703Z,98672.56
2023-02-01T16:11:24.148Z,98667.53
2023-02-01T16:13:28.599Z,98659.97
2023-02-01T16:15:33.083Z,98666.88
2023-02-01T16:17:36.056Z,98657.22
2023-02-01T16:19:39.135Z,98663.31
2023-02-01T16:21:42.026Z,98663.44
2023-02-01T16:23:50.693Z,98663.53
2023-02-01T16:25:54.192Z,98664.28
2023-02-01T16:27:57.545Z,98664.28
2023-02-01T16:30:02.542Z,98665.28
2023-02-01T16:32:06.194Z,98661.84
2023-02-01T16:34:15.953Z,98669.63
2023-02-01T16:36:19.571Z,98679.16
2023-02-01T16:38:24.666Z,98677.25
2023-02-01T16:40:27.794Z,98681.47
2023-02-01T16:42:31.919Z,98664.34
2023-02-01T16:44:35.213Z,98675.75
2023-02-01T16:46:42.888Z,98667.03
2023-02-01T16:48:49.538Z,98682.44
2023-02-01T16:50:55.420Z,98672.00
2023-02-01T16:52:58.545Z,98681.47
2023-02-01T16:55:02.124Z,98690.09
2023-02-01T16:57:05.423Z,98682.16
2023-02-01T16:59:11.144Z,98679.94
2023-02-01T17:01:16.046Z,98678.94
2023-02-01T17:03:22.105Z,98693.56
2023-02-01T17:05:25.777Z,98680.66
2023-02-01T17:07:29.159Z,98691.94
2023-02-01T17:09:32.192Z,98682.44
2023-02-01T17:11:35.843Z,98668.66
2023-02-01T17:13:38.872Z,98678.06
2023-02-01T17:15:42.105Z,98673.69
2023-02-01T17:17:45.762Z,98678.81
2023-02-01T17:19:54.111Z,98677.84
2023-02-01T17:21:59.621Z,98675.16
2023-02-01T17:24:03.018Z,98687.22
2023-02-01T17:26:06.262Z,98672.72
2023-02-01T17:28:09.727Z,98679.50
2023-02-01T17:30:13.708Z,98668.34
2023-02-01T17:32:20.010Z,98672.84
2023-02-01T17:34:23.129Z,98674.81
2023-02-01T17:36:28.018Z,98661.00
2023-02-01T17:38:31.398Z,98668.56
2023-02-01T17:40:35.112Z,98675.59
2023-02-01T17:42:40.827Z,98665.22
2023-02-01T17:44:43.824Z,98669.63
2023-02-01T17:46:46.958Z,98660.84
2023-02-01T17:48:49.941Z,98676.34
2023-02-01T17:50:58.538Z,98667.59
2023-02-01T17:53:05.967Z,98665.16
2023-02-01T17:55:17.899Z,98677.25
2023-02-01T17:57:21.089Z,98671.09
2023-02-01T17:59:24.119Z,98676.28
2023-02-01T18:01:27.703Z,98669.47
2023-02-01T18:03:33.054Z,98669.19
2023-02-01T18:05:41.218Z,98664.84
2023-02-01T18:07:44.293Z,98672.78
2023-02-01T18:09:48.732Z,98676.44
2023-02-01T18:11:55.598Z,98683.47
2023-02-01T18:13:58.660Z,98672.22
2023-02-01T18:16:02.155Z,98680.84
2023-02-01T18:18:05.388Z,98673.00
2023-02-01T18:20:10.185Z,98673.91
2023-02-01T18:22:16.867Z,98661.16
2023-02-01T18:24:20.000Z,98655.81
2023-02-01T18:26:24.901Z,98662.84
2023-02-01T18:28:28.415Z,98649.38
2023-02-01T18:30:33.211Z,98658.75
2023-02-01T18:32:36.845Z,98656.84
2023-02-01T18:34:41.068Z,98650.97
2023-02-01T18:36:44.199Z,98656.84
2023-02-01T18:38:47.746Z,98647.41
2023-02-01T18:40:52.612Z,98656.78
2023-02-01T18:42:58.268Z,98655.13
2023-02-01T18:45:01.451Z,98664.84
2023-02-01T18:47:04.667Z,98650.22
2023-02-01T18:49:08.665Z,98652.75
2023-02-01T18:51:13.284Z,98650.16
2023-02-01T18:53:19.983Z,98648.25
2023-02-01T18:55:23.810Z,98654.19
2023-02-01T18:57:27.313Z,98661.16
2023-02-01T18:59:32.688Z,98653.56
2023-02-01T19:01:36.149Z,98662.19
2023-02-01T19:03:45.029Z,98656.25
2023-02-01T19:05:56.648Z,98656.09
2023-02-01T19:07:59.798Z,98657.06
2023-02-01T19:10:03.059Z,98649.22
2023-02-01T19:12:06.525Z,98652.69
2023-02-01T19:14:09.642Z,98645.66
2023-02-01T19:16:14.791Z,98649.00
2023-02-01T19:18:20.215Z,98636.03
2023-02-01T19:20:25.267Z,98649.06
2023-02-01T19:22:28.554Z,98656.94
2023-02-01T19:24:31.710Z,98643.97
2023-02-01T19:26:34.986Z,98644.75
2023-02-01T19:28:38.292Z,98644.75
2023-02-01T19:30:41.590Z,98643.88
2023-02-01T19:32:46.726Z,98649.88
2023-02-01T19:34:50.145Z,98644.59
2023-02-01T19:36:55.158Z,98647.06
2023-02-01T19:38:58.296Z,98640.78
2023-02-01T19:41:01.648Z,98640.78
2023-02-01T19:43:04.986Z,98644.31
2023-02-01T19:45:09.645Z,98649.34
2023-02-01T19:47:12.855Z,98648.34
2023-02-01T19:49:17.531Z,98656.22
2023-02-01T19:51:21.120Z,98651.00
2023-02-01T19:53:27.666Z,98655.22
2023-02-01T19:55:31.159Z,98654.31
2023-02-01T19:57:36.101Z,98657.75
2023-02-01T19:59:39.322Z,98673.88
2023-02-01T20:01:44.288Z,98672.06
2023-02-01T20:03:47.869Z,98670.38
2023-02-01T20:05:53.633Z,98658.44
2023-02-01T20:07:56.716Z,98669.69
2023-02-01T20:10:00.129Z,98673.03
2023-02-01T20:12:03.511Z,98670.44
2023-02-01T20:14:07.456Z,98656.69
2023-02-01T20:16:11.476Z,98665.47
2023-02-01T20:18:14.740Z,98657.69
2023-02-01T20:20:18.312Z,98656.69
2023-02-01T20:22:23.115Z,98659.16
2023-02-01T20:24:26.381Z,98655.69
2023-02-01T20:26:30.802Z,98656.63
2023-02-01T20:28:34.730Z,98671.34
2023-02-01T20:30:37.870Z,98660.34
2023-02-01T20:32:41.072Z,98657.75
2023-02-01T20:34:44.131Z,98663.78
2023-02-01T20:36:47.205Z,98668.97
2023-02-01T20:38:51.788Z,98659.38
2023-02-01T20:40:54.899Z,98668.00
2023-02-01T20:42:58.800Z,98668.13
2023-02-01T20:45:04.000Z,98675.09
2023-02-01T20:47:07.109Z,98672.50
2023-02-01T20:49:12.017Z,98669.81
2023-02-01T20:51:16.631Z,98679.50
2023-02-01T20:53:26.621Z,98671.78
2023-02-01T20:55:32.437Z,98672.66
2023-02-01T20:57:35.491Z,98665.75
2023-02-01T20:59:39.363Z,98667.44
2023-02-01T21:01:53.114Z,98669.97
2023-02-01T21:03:56.677Z,98671.63
2023-02-01T21:06:00.988Z,98680.13
2023-02-01T21:08:04.225Z,98659.16
2023-02-01T21:10:08.560Z,98660.19
2023-02-01T21:12:13.241Z,98659.59
2023-02-01T21:14:16.292Z,98664.78
2023-02-01T21:16:21.038Z,98663.09
2023-02-01T21:18:24.304Z,98659.59
2023-02-01T21:20:27.977Z,98644.91
2023-02-01T21:22:31.123Z,98654.41
2023-02-01T21:24:34.120Z,98654.41
2023-02-01T21:26:41.840Z,98656.22
2023-02-01T21:28:46.740Z,98652.94
2023-02-01T21:30:49.758Z,98652.72
2023-02-01T21:32:52.879Z,98659.53
2023-02-01T21:34:56.122Z,98660.41
2023-02-01T21:36:59.287Z,98657.75
2023-02-01T21:39:03.780Z,98651.72
2023-02-01T21:41:24.193Z,98641.56
2023-02-01T21:43:27.270Z,98631.88
2023-02-01T21:45:32.047Z,98646.69
2023-02-01T21:47:35.166Z,98648.34
2023-02-01T21:49:40.369Z,98635.28
2023-02-01T21:51:44.564Z,98651.94
2023-02-01T21:53:47.564Z,98647.22
2023-02-01T21:55:51.019Z,98640.63
2023-02-01T21:57:54.047Z,98643.09
2023-02-01T21:59:58.742Z,98642.47
2023-02-01T22:02:04.847Z,98648.56
2023-02-01T22:04:10.325Z,98643.06
2023-02-01T22:06:24.991Z,98653.28
2023-02-01T22:08:28.081Z,98657.50
2023-02-01T22:10:31.140Z,98648.84
2023-02-01T22:12:34.245Z,98660.03
2023-02-01T22:14:37.387Z,98659.16
2023-02-01T22:16:40.948Z,98665.22
2023-02-01T22:18:45.685Z,98669.47
2023-02-01T22:20:48.697Z,98663.22
2023-02-01T22:22:52.401Z,98669.31
2023-02-01T22:24:55.542Z,98670.25
2023-02-01T22:27:13.834Z,98676.97
2023-02-01T22:29:19.160Z,98680.50
2023-02-01T22:31:22.697Z,98666.59
2023-02-01T22:33:25.876Z,98668.34
2023-02-01T22:35:30.375Z,98670.81
2023-02-01T22:37:33.391Z,98670.66
2023-02-01T22:39:36.432Z,98674.00
2023-02-01T22:41:39.514Z,98677.63
2023-02-01T22:43:42.714Z,98662.03
2023-02-01T22:45:45.829Z,98682.00
2023-02-01T22:47:49.963Z,98678.53
2023-02-01T22:49:53.237Z,98675.84
2023-02-01T22:51:59.219Z,98682.94
2023-02-01T22:54:02.685Z,98683.94
2023-02-01T22:56:07.636Z,98690.81
2023-02-01T22:58:10.666Z,98675.25
2023-02-01T23:00:14.846Z,98682.81
2023-02-01T23:02:17.864Z,98687.34
2023-02-01T23:04:21.439Z,98695.22
2023-02-01T23:06:24.640Z,98686.75
2023-02-01T23:08:29.186Z,98688.50
2023-02-01T23:10:32.181Z,98673.75
2023-02-01T23:12:35.238Z,98682.88
2023-02-01T23:14:58.395Z,98688.78
2023-02-01T23:17:01.751Z,98695.34
2023-02-01T23:19:05.223Z,98694.53
2023-02-01T23:21:10.523Z,98692.84
2023-02-01T23:23:16.302Z,98682.44
2023-02-01T23:25:20.792Z,98684.91
2023-02-01T23:27:23.939Z,98686.88
2023-02-01T23:29:28.291Z,98693.84
2023-02-01T23:31:33.435Z,98687.78
2023-02-01T23:33:37.225Z,98685.41
2023-02-01T23:35:40.464Z,98691.47
2023-02-01T23:37:43.782Z,98683.66
2023-02-01T23:39:46.889Z,98690.38
2023-02-01T23:41:51.337Z,98675.88
2023-02-01T23:43:59.649Z,98687.03
2023-02-01T23:46:02.866Z,98685.34
2023-02-01T23:48:06.545Z,98686.19
2023-02-01T23:50:10.416Z,98682.88
2023-02-01T23:52:13.579Z,98681.91
2023-02-01T23:54:16.663Z,98678.56
2023-02-01T23:56:22.784Z,98684.84
2023-02-01T23:58:27.287Z,98672.63
